Time;durP1;ratioP1;P1;durP2;ratioP2;P2;SDS_P1;SDS_P2;PMS_P1;PMS_P2;Temp;Humidity;BMP_temperature;BMP_pressure;BME280_temperature;BME280_humidity;BME280_pressure;Samples;Min_cycle;Max_cycle;Signal;HPM_P1;HPM_P2
2023/01/18 00:01:18;;;;;;;4.70;3.30;;;1.30;99.90;;;;;;5056755;28;20168;-72
2023/01/18 00:03:46;;;;;;;4.60;3.50;;;1.20;99.90;;;;;;5056766;28;20184;-72
2023/01/18 00:06:12;;;;;;;5.83;3.43;;;1.30;99.90;;;;;;5070501;28;20341;-73
2023/01/18 00:08:41;;;;;;;6.43;3.40;;;1.20;99.90;;;;;;5094068;28;20404;-72
2023/01/18 00:11:12;;;;;;;4.63;3.10;;;1.20;99.90;;;;;;5063347;28;20257;-71
2023/01/18 00:13:40;;;;;;;5.63;3.57;;;1.20;99.90;;;;;;5067052;28;20435;-72
2023/01/18 00:16:09;;;;;;;4.70;3.47;;;1.20;99.90;;;;;;5059666;28;20188;-72
2023/01/18 00:18:37;;;;;;;6.53;3.40;;;1.20;99.90;;;;;;5063545;28;20176;-72
2023/01/18 00:21:06;;;;;;;5.17;3.20;;;1.20;99.90;;;;;;5061239;28;20180;-72
2023/01/18 00:23:37;;;;;;;4.63;3.20;;;1.10;99.90;;;;;;5081186;28;20179;-72
2023/01/18 00:26:06;;;;;;;5.87;3.47;;;1.20;99.90;;;;;;5080246;28;20184;-73
2023/01/18 00:28:32;;;;;;;5.10;3.60;;;1.10;99.90;;;;;;5079939;28;20291;-72
2023/01/18 00:30:57;;;;;;;5.03;3.70;;;1.10;99.90;;;;;;5080226;28;20222;-71
2023/01/18 00:33:26;;;;;;;5.53;3.30;;;1.10;99.90;;;;;;5076771;28;20177;-72
2023/01/18 00:36:02;;;;;;;4.80;3.63;;;1.10;99.90;;;;;;5059615;28;20231;-72
2023/01/18 00:38:28;;;;;;;5.37;3.40;;;1.00;99.90;;;;;;5063167;28;20179;-72
2023/01/18 00:40:55;;;;;;;5.50;3.70;;;1.00;99.90;;;;;;5060151;28;20197;-73
2023/01/18 00:43:39;;;;;;;6.80;3.83;;;1.00;99.90;;;;;;5059994;28;20176;-72
2023/01/18 00:46:06;;;;;;;6.07;3.40;;;1.00;99.90;;;;;;5059960;28;20180;-72
2023/01/18 00:48:32;;;;;;;5.80;3.37;;;1.00;99.90;;;;;;5071110;28;20191;-70
2023/01/18 00:50:58;;;;;;;4.57;3.33;;;0.90;99.90;;;;;;5080021;28;20275;-73
2023/01/18 00:53:26;;;;;;;4.27;3.40;;;0.90;99.90;;;;;;5079686;28;20294;-72
2023/01/18 00:55:54;;;;;;;5.50;3.70;;;0.90;99.90;;;;;;5079679;28;20291;-72
2023/01/18 00:58:20;;;;;;;4.53;3.23;;;0.90;99.90;;;;;;5079709;28;20403;-72
2023/01/18 01:00:47;;;;;;;5.83;3.13;;;0.90;99.90;;;;;;5079135;28;20321;-73
2023/01/18 01:03:13;;;;;;;3.80;2.77;;;0.90;99.90;;;;;;5065960;28;20168;-73
2023/01/18 01:08:26;;;;;;;5.70;3.50;;;0.90;99.90;;;;;;5079091;28;20175;-71
2023/01/18 01:11:02;;;;;;;4.57;3.70;;;0.80;99.90;;;;;;5078983;28;20180;-74
2023/01/18 01:27:14;;;;;;;4.20;3.43;;;0.80;99.90;;;;;;5096600;28;20206;-72
2023/01/18 01:29:39;;;;;;;6.33;3.47;;;0.70;99.90;;;;;;5079215;28;20231;-73
2023/01/18 01:32:08;;;;;;;5.20;3.70;;;0.70;99.90;;;;;;5079298;28;20207;-72
2023/01/18 01:34:36;;;;;;;4.77;3.57;;;0.70;99.90;;;;;;5079312;28;20921;-73
2023/01/18 01:37:05;;;;;;;4.10;3.20;;;0.70;99.90;;;;;;5079624;28;20172;-73
2023/01/18 01:39:30;;;;;;;4.20;3.30;;;0.70;99.90;;;;;;5078818;28;20199;-72
2023/01/18 01:41:56;;;;;;;4.53;3.47;;;0.70;99.90;;;;;;5086114;28;20212;-72
2023/01/18 01:44:27;;;;;;;4.43;3.10;;;0.60;99.90;;;;;;5084226;28;20188;-72
2023/01/18 01:47:03;;;;;;;5.10;3.47;;;0.60;99.90;;;;;;5073830;28;20219;-72
2023/01/18 01:49:46;;;;;;;4.63;3.30;;;0.60;99.90;;;;;;5071037;28;20182;-73
2023/01/18 01:52:20;;;;;;;5.60;3.37;;;0.60;99.90;;;;;;5072712;28;20518;-71
2023/01/18 01:54:56;;;;;;;3.97;2.97;;;0.60;99.90;;;;;;5080881;28;20205;-71
2023/01/18 01:57:30;;;;;;;3.67;3.00;;;0.50;99.90;;;;;;5092927;28;20183;-73
2023/01/18 02:00:18;;;;;;;3.97;3.07;;;0.60;99.90;;;;;;5068548;28;20202;-72
2023/01/18 02:02:47;;;;;;;3.63;2.90;;;0.60;99.90;;;;;;5078593;28;20176;-73
2023/01/18 02:05:15;;;;;;;5.40;3.30;;;0.50;99.90;;;;;;5083255;28;20184;-73
2023/01/18 02:07:44;;;;;;;4.10;3.20;;;0.50;99.90;;;;;;5085015;28;20210;-72
2023/01/18 02:10:10;;;;;;;4.80;3.17;;;0.60;99.90;;;;;;5083354;28;20184;-72
2023/01/18 02:12:38;;;;;;;6.07;3.13;;;0.60;99.90;;;;;;5078615;28;20203;-73
2023/01/18 02:15:05;;;;;;;4.20;2.93;;;0.60;99.90;;;;;;5077534;28;20203;-74
2023/01/18 02:17:37;;;;;;;3.67;3.10;;;0.60;99.90;;;;;;5076228;28;20229;-73
2023/01/18 02:20:27;;;;;;;4.87;3.60;;;0.60;99.90;;;;;;5077430;28;20238;-73
2023/01/18 02:23:20;;;;;;;4.50;3.20;;;0.50;99.90;;;;;;5077871;28;20210;-73
2023/01/18 02:25:58;;;;;;;4.83;3.07;;;0.50;99.90;;;;;;5077307;28;20454;-73
2023/01/18 02:28:34;;;;;;;5.93;3.40;;;0.50;99.90;;;;;;5091343;28;20200;-72
2023/01/18 02:31:03;;;;;;;4.47;3.37;;;0.50;99.90;;;;;;5060751;28;20241;-71
2023/01/18 02:33:39;;;;;;;4.90;3.47;;;0.60;99.90;;;;;;5073695;28;20181;-72
2023/01/18 02:36:05;;;;;;;5.17;3.20;;;0.50;99.90;;;;;;5077654;28;20237;-73
2023/01/18 02:38:43;;;;;;;4.50;3.07;;;0.50;99.90;;;;;;5077760;28;20172;-73
2023/01/18 02:47:11;;;;;;;4.13;3.20;;;0.50;99.90;;;;;;5081778;28;20188;-75
2023/01/18 02:49:37;;;;;;;4.83;3.33;;;0.50;99.90;;;;;;5066079;28;20200;-71
2023/01/18 02:52:05;;;;;;;4.00;3.10;;;0.50;99.90;;;;;;5077732;28;20182;-73
2023/01/18 02:54:34;;;;;;;4.20;3.37;;;0.40;99.90;;;;;;5077615;28;20202;-73
2023/01/18 02:57:04;;;;;;;4.47;3.33;;;0.40;99.90;;;;;;5077521;28;21271;-73
2023/01/18 02:59:41;;;;;;;4.63;2.93;;;0.40;99.90;;;;;;5077845;28;20188;-74
2023/01/18 03:02:18;;;;;;;5.10;3.80;;;0.40;99.90;;;;;;5077437;28;20203;-74
2023/01/18 03:04:54;;;;;;;5.40;3.40;;;0.40;99.90;;;;;;5077071;28;20216;-74
2023/01/18 03:07:31;;;;;;;5.13;3.33;;;0.40;99.90;;;;;;5077371;28;20185;-73
2023/01/18 03:09:59;;;;;;;4.70;3.40;;;0.40;99.90;;;;;;5073367;28;20236;-73
2023/01/18 03:12:49;;;;;;;5.10;3.70;;;0.40;99.90;;;;;;5077429;28;20227;-73
2023/01/18 03:15:52;;;;;;;4.67;3.20;;;0.40;99.90;;;;;;5077468;28;20196;-73
2023/01/18 03:18:21;;;;;;;4.77;3.27;;;0.30;99.90;;;;;;5077125;28;20195;-73
2023/01/18 03:20:52;;;;;;;3.93;2.97;;;0.30;99.90;;;;;;5077025;28;20204;-72
2023/01/18 03:23:38;;;;;;;3.97;2.90;;;0.30;99.90;;;;;;5077249;28;20180;-73
2023/01/18 03:26:20;;;;;;;3.73;2.77;;;0.30;99.90;;;;;;5065291;28;20175;-73
2023/01/18 03:34:47;;;;;;;4.07;2.90;;;0.30;99.90;;;;;;5094835;28;20241;-72
2023/01/18 03:37:23;;;;;;;4.07;2.70;;;0.30;99.90;;;;;;5063064;28;20175;-72
2023/01/18 03:39:56;;;;;;;4.20;2.83;;;0.30;99.90;;;;;;5076846;28;20199;-72
2023/01/18 03:42:31;;;;;;;3.93;2.80;;;0.40;99.90;;;;;;5077101;28;20156;-71
2023/01/18 03:45:09;;;;;;;4.27;2.80;;;0.30;99.90;;;;;;5073857;28;20247;-72
2023/01/18 03:47:35;;;;;;;3.87;2.73;;;0.30;99.90;;;;;;5077077;28;20192;-72
2023/01/18 03:50:01;;;;;;;4.20;3.20;;;0.20;99.90;;;;;;5076870;28;20240;-72
2023/01/18 03:52:49;;;;;;;5.57;3.23;;;0.30;99.90;;;;;;5087214;28;20211;-73
2023/01/18 03:55:21;;;;;;;4.93;3.00;;;0.30;99.90;;;;;;5076832;28;20188;-73
2023/01/18 03:58:08;;;;;;;5.10;3.47;;;0.30;99.90;;;;;;5079550;28;20187;-73
2023/01/18 04:00:34;;;;;;;5.30;3.20;;;0.30;99.90;;;;;;5080408;28;20192;-73
2023/01/18 04:03:02;;;;;;;3.73;2.87;;;0.30;99.90;;;;;;5080929;28;20182;-71
2023/01/18 04:05:34;;;;;;;3.90;3.10;;;0.30;99.90;;;;;;5080857;28;20419;-73
2023/01/18 04:07:59;;;;;;;4.70;2.93;;;0.30;99.90;;;;;;5073975;28;20226;-72
2023/01/18 04:10:25;;;;;;;4.40;3.13;;;0.30;99.90;;;;;;5080663;28;20180;-73
2023/01/18 04:12:51;;;;;;;5.50;3.40;;;0.30;99.90;;;;;;5080147;28;20245;-73
2023/01/18 04:15:16;;;;;;;4.20;3.07;;;0.30;99.90;;;;;;5080365;28;20358;-73
2023/01/18 04:17:42;;;;;;;4.60;3.03;;;0.30;99.90;;;;;;5080896;28;20184;-73
2023/01/18 04:20:09;;;;;;;4.30;2.90;;;0.30;99.90;;;;;;5080349;28;20225;-73
2023/01/18 04:22:41;;;;;;;4.67;2.93;;;0.30;99.90;;;;;;5080301;28;20202;-73
2023/01/18 04:25:07;;;;;;;5.80;2.87;;;0.30;99.90;;;;;;5080743;28;20172;-73
2023/01/18 04:27:35;;;;;;;3.57;3.00;;;0.30;99.90;;;;;;5078917;28;20854;-73
2023/01/18 04:30:05;;;;;;;5.20;3.17;;;0.30;99.90;;;;;;5075549;28;20282;-73
2023/01/18 04:32:31;;;;;;;4.50;3.13;;;0.30;99.90;;;;;;5080503;28;20180;-72
2023/01/18 04:35:01;;;;;;;4.30;2.83;;;0.30;99.90;;;;;;5080293;28;20258;-72
2023/01/18 04:37:32;;;;;;;5.10;3.40;;;0.40;99.90;;;;;;5080591;28;20184;-72
2023/01/18 04:39:58;;;;;;;4.80;3.10;;;0.30;99.90;;;;;;5080850;28;20164;-74
2023/01/18 04:42:29;;;;;;;4.33;3.37;;;0.30;99.90;;;;;;5080668;28;20175;-74
2023/01/18 04:45:01;;;;;;;4.40;3.40;;;0.30;99.90;;;;;;5079748;28;20171;-73
2023/01/18 04:47:32;;;;;;;5.03;3.33;;;0.40;99.90;;;;;;5080140;28;20210;-72
2023/01/18 04:49:58;;;;;;;4.40;3.07;;;0.40;99.90;;;;;;5080130;28;20171;-72
2023/01/18 04:52:25;;;;;;;7.07;3.90;;;0.40;99.90;;;;;;5080055;28;20196;-72
2023/01/18 04:54:51;;;;;;;6.70;3.30;;;0.40;99.90;;;;;;5096554;28;20192;-72
2023/01/18 04:57:19;;;;;;;5.70;3.40;;;0.40;99.90;;;;;;5079948;28;20187;-72
2023/01/18 04:59:47;;;;;;;4.93;3.00;;;0.30;99.90;;;;;;5074575;28;20175;-72
2023/01/18 05:02:13;;;;;;;4.13;3.37;;;0.30;99.90;;;;;;5077467;28;20233;-72
2023/01/18 05:04:42;;;;;;;4.87;3.50;;;0.30;99.90;;;;;;5079712;28;20195;-72
2023/01/18 05:07:08;;;;;;;4.80;3.50;;;0.30;99.90;;;;;;5080770;28;20168;-72
2023/01/18 05:09:33;;;;;;;5.00;3.17;;;0.30;99.90;;;;;;5079675;28;20356;-73
2023/01/18 05:11:59;;;;;;;4.10;3.30;;;0.30;99.90;;;;;;5081353;28;20240;-72
2023/01/18 05:14:29;;;;;;;4.10;3.20;;;0.40;99.90;;;;;;5079319;28;20195;-73
2023/01/18 05:16:55;;;;;;;5.27;3.13;;;0.40;99.90;;;;;;5072597;28;20195;-73
2023/01/18 05:19:22;;;;;;;5.80;3.60;;;0.40;99.90;;;;;;5079544;28;20184;-73
2023/01/18 05:21:48;;;;;;;5.30;3.60;;;0.40;99.90;;;;;;5078883;28;20214;-73
2023/01/18 05:24:14;;;;;;;6.60;3.70;;;0.50;99.90;;;;;;5079567;28;20168;-74
2023/01/18 05:26:42;;;;;;;6.20;4.20;;;0.50;99.90;;;;;;5074237;28;20516;-73
2023/01/18 05:29:09;;;;;;;5.80;4.20;;;0.50;99.90;;;;;;5075003;28;20263;-75
2023/01/18 05:31:37;;;;;;;7.57;4.97;;;0.50;99.90;;;;;;5079266;28;20315;-78
2023/01/18 05:34:07;;;;;;;6.43;4.30;;;0.50;99.90;;;;;;5078954;28;20196;-69
2023/01/18 05:36:35;;;;;;;6.33;4.20;;;0.60;99.90;;;;;;5081583;28;20196;-70
2023/01/18 05:39:01;;;;;;;5.70;3.87;;;0.60;99.90;;;;;;5095954;28;20188;-71
2023/01/18 05:41:27;;;;;;;12.57;4.33;;;0.60;99.90;;;;;;5092750;28;20178;-70
2023/01/18 05:43:52;;;;;;;6.27;4.17;;;0.70;99.90;;;;;;5078946;28;20207;-74
2023/01/18 05:46:20;;;;;;;5.33;4.20;;;0.70;99.90;;;;;;5075354;28;20275;-72
2023/01/18 05:48:46;;;;;;;6.43;4.50;;;0.70;99.90;;;;;;5081281;28;20195;-73
2023/01/18 05:51:12;;;;;;;6.23;4.17;;;0.70;99.90;;;;;;5071582;28;20196;-72
2023/01/18 05:53:39;;;;;;;8.20;5.23;;;0.80;99.90;;;;;;5071187;28;20206;-74
2023/01/18 05:56:08;;;;;;;7.33;4.83;;;0.80;99.90;;;;;;5071768;28;20376;-76
2023/01/18 05:58:37;;;;;;;6.70;4.63;;;0.80;99.90;;;;;;5077972;28;20180;-74
2023/01/18 06:01:06;;;;;;;5.90;4.60;;;0.80;99.90;;;;;;5084990;28;20175;-74
2023/01/18 06:03:34;;;;;;;6.73;5.03;;;0.80;99.90;;;;;;5076961;28;20210;-74
2023/01/18 06:06:00;;;;;;;7.40;4.93;;;0.80;99.90;;;;;;5079353;28;20172;-74
2023/01/18 06:08:31;;;;;;;6.30;4.67;;;0.70;99.90;;;;;;5078840;28;20231;-73
2023/01/18 06:10:58;;;;;;;6.07;4.70;;;0.70;99.90;;;;;;5077865;28;20176;-74
2023/01/18 06:13:28;;;;;;;7.27;4.10;;;0.70;99.90;;;;;;5078335;28;20180;-71
2023/01/18 06:15:55;;;;;;;6.20;4.47;;;0.70;99.90;;;;;;5081786;28;20416;-74
2023/01/18 06:18:23;;;;;;;6.33;4.53;;;0.70;99.90;;;;;;5078006;28;20168;-71
2023/01/18 06:20:48;;;;;;;6.17;4.10;;;0.70;99.90;;;;;;5076938;28;20191;-73
2023/01/18 06:23:16;;;;;;;6.07;4.20;;;0.60;99.90;;;;;;5076967;28;20173;-75
2023/01/18 06:25:44;;;;;;;6.73;4.50;;;0.60;99.90;;;;;;5077804;28;20263;-75
2023/01/18 06:28:12;;;;;;;8.47;5.17;;;0.60;99.90;;;;;;5064306;28;20196;-73
2023/01/18 06:30:38;;;;;;;7.40;5.07;;;0.70;99.90;;;;;;5057894;28;20238;-76
2023/01/18 06:33:05;;;;;;;6.37;4.60;;;0.60;99.90;;;;;;5061062;28;20245;-75
2023/01/18 06:35:37;;;;;;;6.53;4.80;;;0.60;99.90;;;;;;5077535;28;20285;-75
2023/01/18 06:38:03;;;;;;;6.63;4.57;;;0.60;99.90;;;;;;5071089;28;20202;-74
2023/01/18 06:40:29;;;;;;;7.33;4.63;;;0.60;99.90;;;;;;5077085;28;20168;-75
2023/01/18 06:42:55;;;;;;;6.57;4.80;;;0.60;99.90;;;;;;5077310;28;20168;-75
2023/01/18 06:45:24;;;;;;;5.47;4.00;;;0.50;99.90;;;;;;5077376;28;20235;-75
2023/01/18 06:47:51;;;;;;;5.87;4.23;;;0.50;99.90;;;;;;5077602;28;20207;-75
2023/01/18 06:50:17;;;;;;;6.13;3.90;;;0.50;99.90;;;;;;5077146;28;20175;-75
2023/01/18 06:52:44;;;;;;;5.47;4.43;;;0.50;99.90;;;;;;5094280;28;20179;-74
2023/01/18 06:55:11;;;;;;;7.00;4.43;;;0.50;99.90;;;;;;5072215;28;20201;-74
2023/01/18 06:57:37;;;;;;;6.20;4.37;;;0.50;99.90;;;;;;5057169;28;20165;-74
2023/01/18 07:00:07;;;;;;;5.87;4.50;;;0.50;99.90;;;;;;5057107;28;20172;-74
2023/01/18 07:02:36;;;;;;;6.40;4.87;;;0.50;99.90;;;;;;5057251;28;20200;-74
2023/01/18 07:05:01;;;;;;;6.50;4.63;;;0.40;99.90;;;;;;5075344;28;20180;-74
2023/01/18 07:07:32;;;;;;;6.60;5.23;;;0.40;99.90;;;;;;5076885;28;20191;-73
2023/01/18 07:10:00;;;;;;;8.53;5.40;;;0.40;99.90;;;;;;5063146;28;20204;-75
2023/01/18 07:12:26;;;;;;;9.80;5.73;;;0.40;99.90;;;;;;5076805;28;20172;-76
2023/01/18 07:14:51;;;;;;;6.03;4.30;;;0.40;99.90;;;;;;5076837;28;20191;-73
2023/01/18 07:17:17;;;;;;;6.43;4.60;;;0.40;99.90;;;;;;5076561;28;20192;-75
2023/01/18 07:19:43;;;;;;;8.00;4.83;;;0.40;99.90;;;;;;5077353;28;20272;-72
2023/01/18 07:22:14;;;;;;;5.73;4.33;;;0.40;99.90;;;;;;5076673;28;20167;-74
2023/01/18 07:24:39;;;;;;;8.13;5.20;;;0.40;99.90;;;;;;5077197;28;20170;-76
2023/01/18 07:27:05;;;;;;;7.00;5.13;;;0.40;99.90;;;;;;5076413;28;20259;-76
2023/01/18 07:29:31;;;;;;;8.57;4.93;;;0.40;99.90;;;;;;5096284;28;20251;-75
2023/01/18 07:31:56;;;;;;;7.53;5.10;;;0.30;99.90;;;;;;5093639;28;20172;-73
2023/01/18 07:34:24;;;;;;;6.50;4.97;;;0.40;99.90;;;;;;5079736;28;20211;-75
2023/01/18 07:36:53;;;;;;;7.97;4.87;;;0.40;99.90;;;;;;5079564;28;20207;-75
2023/01/18 07:39:19;;;;;;;6.97;5.10;;;0.40;99.90;;;;;;5079895;28;20168;-75
2023/01/18 07:41:45;;;;;;;8.30;5.50;;;0.40;99.90;;;;;;5079926;28;20203;-75
2023/01/18 07:44:14;;;;;;;8.00;5.60;;;0.40;99.90;;;;;;5078893;28;20180;-73
2023/01/18 07:46:42;;;;;;;8.17;5.50;;;0.40;99.90;;;;;;5094388;28;20210;-75
2023/01/18 07:49:10;;;;;;;7.33;5.60;;;0.40;99.90;;;;;;5076471;28;20286;-75
2023/01/18 07:51:36;;;;;;;8.73;5.53;;;0.40;99.90;;;;;;5076806;28;20196;-73
2023/01/18 07:54:04;;;;;;;8.83;5.83;;;0.50;99.90;;;;;;5068329;28;20196;-73
2023/01/18 07:56:29;;;;;;;7.17;5.37;;;0.50;99.90;;;;;;5072854;28;20192;-74
2023/01/18 07:58:55;;;;;;;7.10;5.27;;;0.50;99.90;;;;;;5073208;28;20229;-75
2023/01/18 08:01:25;;;;;;;7.30;5.33;;;0.50;99.90;;;;;;5076515;28;20209;-75
2023/01/18 08:03:53;;;;;;;8.37;5.43;;;0.50;99.90;;;;;;5072625;28;20191;-74
2023/01/18 08:06:23;;;;;;;7.77;5.47;;;0.50;99.90;;;;;;5056145;28;20227;-73
2023/01/18 08:08:49;;;;;;;7.43;5.50;;;0.50;99.90;;;;;;5076364;28;20179;-75
2023/01/18 08:11:15;;;;;;;10.53;5.80;;;0.60;99.90;;;;;;5071888;28;20180;-76
2023/01/18 08:13:43;;;;;;;9.33;5.80;;;0.60;99.90;;;;;;5076488;28;20202;-75
2023/01/18 08:16:10;;;;;;;9.70;5.67;;;0.60;99.90;;;;;;5076666;28;20373;-76
2023/01/18 08:18:38;;;;;;;8.60;5.60;;;0.70;99.90;;;;;;5076360;28;20168;-75
2023/01/18 08:21:04;;;;;;;9.00;5.60;;;0.70;99.90;;;;;;5076098;28;20196;-75
2023/01/18 08:23:32;;;;;;;10.57;6.10;;;0.70;99.90;;;;;;5076619;28;20165;-75
2023/01/18 08:26:02;;;;;;;10.93;6.17;;;0.70;99.90;;;;;;5076178;28;20196;-76
2023/01/18 08:28:28;;;;;;;8.20;5.70;;;0.80;99.90;;;;;;5076394;28;20176;-76
2023/01/18 08:31:08;;;;;;;8.33;6.03;;;0.80;99.90;;;;;;5075806;28;20349;-74
2023/01/18 08:33:38;;;;;;;10.17;6.33;;;0.80;99.90;;;;;;5075904;28;20173;-76
2023/01/18 08:36:10;;;;;;;10.57;7.03;;;0.90;99.90;;;;;;5094050;28;20204;-76
2023/01/18 08:38:37;;;;;;;9.47;6.77;;;0.90;99.90;;;;;;5079333;28;20183;-75
2023/01/18 08:41:03;;;;;;;9.67;6.33;;;0.90;99.90;;;;;;5075861;28;20168;-74
2023/01/18 08:43:31;;;;;;;11.23;6.73;;;1.00;99.90;;;;;;5074668;28;20169;-76
2023/01/18 08:45:58;;;;;;;9.40;6.53;;;1.00;99.90;;;;;;5059870;28;20231;-76
2023/01/18 08:48:26;;;;;;;7.60;5.63;;;1.00;99.90;;;;;;5093940;28;20188;-76
2023/01/18 08:51:00;;;;;;;9.50;6.47;;;1.10;99.90;;;;;;5094124;28;20172;-74
2023/01/18 08:53:31;;;;;;;10.10;6.90;;;1.10;99.90;;;;;;5079575;28;20191;-75
2023/01/18 08:55:59;;;;;;;9.73;6.30;;;1.20;99.90;;;;;;5079730;28;20196;-75
2023/01/18 08:58:25;;;;;;;8.20;6.03;;;1.20;99.90;;;;;;5079207;28;20172;-76
2023/01/18 09:00:53;;;;;;;10.43;7.10;;;1.30;99.90;;;;;;5079626;28;20227;-76
2023/01/18 09:03:22;;;;;;;12.97;6.90;;;1.30;99.90;;;;;;5080533;28;20176;-75
2023/01/18 09:05:48;;;;;;;11.93;6.77;;;1.40;99.90;;;;;;5080209;28;20275;-76
2023/01/18 09:08:14;;;;;;;12.20;7.63;;;1.50;99.90;;;;;;5076620;28;20176;-75
2023/01/18 09:10:42;;;;;;;10.77;7.37;;;1.50;99.90;;;;;;5061141;28;20302;-77
2023/01/18 09:13:10;;;;;;;13.60;7.63;;;1.60;99.90;;;;;;5075308;28;20203;-76
2023/01/18 09:15:35;;;;;;;12.00;7.50;;;1.70;99.90;;;;;;5079933;28;20192;-76
2023/01/18 09:18:05;;;;;;;12.63;7.70;;;1.90;99.90;;;;;;5079742;28;20527;-76
2023/01/18 09:20:34;;;;;;;13.17;8.50;;;2.10;99.90;;;;;;5079509;28;20192;-76
2023/01/18 09:23:06;;;;;;;10.97;7.70;;;2.30;99.90;;;;;;5079747;28;20233;-76
2023/01/18 09:25:32;;;;;;;12.07;8.27;;;2.50;99.90;;;;;;5075778;28;20210;-74
2023/01/18 09:28:01;;;;;;;12.27;8.60;;;2.70;99.90;;;;;;5059534;28;20260;-77
2023/01/18 09:30:29;;;;;;;11.13;7.70;;;2.90;99.90;;;;;;5062827;28;20179;-76
2023/01/18 09:32:59;;;;;;;12.17;8.27;;;3.10;99.90;;;;;;5079473;28;20199;-75
2023/01/18 09:35:25;;;;;;;11.37;8.07;;;3.20;99.90;;;;;;5079366;28;20218;-76
2023/01/18 09:37:53;;;;;;;11.43;8.30;;;3.40;99.90;;;;;;5079058;28;20172;-76
2023/01/18 09:40:21;;;;;;;12.90;8.90;;;3.40;99.90;;;;;;5079499;28;20157;-77
2023/01/18 09:42:53;;;;;;;13.50;9.07;;;3.60;99.90;;;;;;5079297;28;20179;-77
2023/01/18 09:45:25;;;;;;;11.43;8.40;;;3.60;99.90;;;;;;5079058;28;20276;-76
2023/01/18 09:48:05;;;;;;;11.87;8.23;;;3.60;99.90;;;;;;5079266;28;20175;-77
2023/01/18 09:50:45;;;;;;;11.27;7.37;;;3.60;99.90;;;;;;5078722;28;20176;-76
2023/01/18 09:53:35;;;;;;;10.60;7.43;;;3.60;99.90;;;;;;5059097;28;20207;-77
2023/01/18 09:56:19;;;;;;;11.33;7.30;;;3.70;99.90;;;;;;5059164;28;20203;-75
2023/01/18 09:58:56;;;;;;;12.23;7.87;;;3.80;99.90;;;;;;5076135;28;20279;-77
2023/01/18 10:01:27;;;;;;;11.33;7.60;;;3.90;99.90;;;;;;5058959;28;20172;-77
2023/01/18 10:04:44;;;;;;;9.50;7.20;;;4.00;99.90;;;;;;5058891;28;20193;-76
2023/01/18 10:07:16;;;;;;;10.17;7.23;;;4.10;99.90;;;;;;5043722;28;20188;-75
2023/01/18 10:09:50;;;;;;;11.20;7.67;;;4.30;99.90;;;;;;5078835;28;20223;-78
2023/01/18 10:12:25;;;;;;;10.17;7.07;;;4.40;99.90;;;;;;5078408;28;20193;-77
2023/01/18 10:15:03;;;;;;;8.90;6.90;;;4.50;99.90;;;;;;5078446;28;20216;-78
2023/01/18 10:17:36;;;;;;;10.03;7.27;;;4.60;99.90;;;;;;5075136;28;20279;-77
2023/01/18 10:20:12;;;;;;;11.10;7.13;;;4.60;99.90;;;;;;5075221;28;20161;-77
2023/01/18 10:22:54;;;;;;;12.50;7.93;;;4.60;99.90;;;;;;5075886;28;20207;-76
2023/01/18 10:25:44;;;;;;;9.27;6.90;;;4.60;99.90;;;;;;5078230;28;20187;-75
2023/01/18 10:28:24;;;;;;;9.37;6.87;;;4.70;99.90;;;;;;5078644;28;20156;-76
2023/01/18 10:31:14;;;;;;;12.57;6.90;;;4.70;99.90;;;;;;5077883;28;20477;-77
2023/01/18 10:33:45;;;;;;;10.17;6.10;;;4.90;99.90;;;;;;5072891;28;20184;-78
2023/01/18 10:36:21;;;;;;;9.13;6.67;;;5.00;99.90;;;;;;5058020;28;20208;-75
2023/01/18 10:38:48;;;;;;;8.73;6.50;;;5.00;99.90;;;;;;5058359;28;20259;-78
2023/01/18 10:41:24;;;;;;;9.20;6.60;;;5.00;99.90;;;;;;5077651;28;20284;-75
2023/01/18 10:43:50;;;;;;;9.43;6.43;;;5.00;99.90;;;;;;5078103;28;20182;-78
2023/01/18 10:46:20;;;;;;;17.43;7.20;;;5.00;99.90;;;;;;5077742;28;20214;-78
2023/01/18 10:48:50;;;;;;;11.80;6.87;;;5.10;99.90;;;;;;5077851;28;20227;-78
2023/01/18 10:51:39;;;;;;;7.93;6.00;;;5.10;99.90;;;;;;5078053;28;20176;-77
2023/01/18 10:54:19;;;;;;;8.07;5.70;;;5.30;99.90;;;;;;5093581;28;20222;-78
2023/01/18 10:56:45;;;;;;;9.07;5.70;;;5.30;99.90;;;;;;5094591;28;20206;-78
2023/01/18 10:59:29;;;;;;;9.07;6.17;;;5.30;99.90;;;;;;5077697;28;20168;-78
2023/01/18 11:01:56;;;;;;;7.23;5.50;;;5.30;99.90;;;;;;5074129;28;20197;-76
2023/01/18 11:04:30;;;;;;;9.07;5.67;;;5.20;99.90;;;;;;5074353;28;20165;-77
2023/01/18 11:06:59;;;;;;;7.63;5.17;;;5.20;99.90;;;;;;5074641;28;20192;-78
2023/01/18 11:09:50;;;;;;;9.47;6.40;;;5.20;99.90;;;;;;5077445;28;20253;-77
2023/01/18 11:12:37;;;;;;;9.30;5.57;;;5.20;99.90;;;;;;5077503;28;20197;-75
2023/01/18 11:15:14;;;;;;;5.97;4.87;;;5.20;99.90;;;;;;5077475;28;20188;-78
2023/01/18 11:17:43;;;;;;;7.37;5.37;;;5.20;99.90;;;;;;5077815;28;20164;-77
2023/01/18 11:20:22;;;;;;;6.37;4.60;;;5.20;99.90;;;;;;5077130;28;20218;-78
2023/01/18 11:23:02;;;;;;;6.90;4.67;;;5.30;99.90;;;;;;5077508;28;20388;-78
2023/01/18 11:25:39;;;;;;;5.67;4.50;;;5.30;99.90;;;;;;5077428;28;20191;-76
2023/01/18 11:28:15;;;;;;;6.07;4.57;;;5.40;99.90;;;;;;5077162;28;20243;-78
2023/01/18 11:30:51;;;;;;;7.07;4.60;;;5.40;99.90;;;;;;5094460;28;20241;-77
2023/01/18 11:33:22;;;;;;;6.13;4.27;;;5.50;99.90;;;;;;5074157;28;20196;-77
2023/01/18 11:35:53;;;;;;;5.90;4.63;;;5.50;99.90;;;;;;5068771;28;20203;-77
2023/01/18 11:38:30;;;;;;;5.73;4.43;;;5.50;99.90;;;;;;5077431;28;20320;-76
2023/01/18 11:41:18;;;;;;;6.83;4.70;;;5.60;99.90;;;;;;5077242;28;20217;-78
2023/01/18 11:43:59;;;;;;;6.30;4.07;;;5.60;99.90;;;;;;5077382;28;20160;-75
2023/01/18 11:46:38;;;;;;;6.40;4.80;;;5.70;99.90;;;;;;5077472;28;20172;-78
2023/01/18 11:49:35;;;;;;;6.53;3.97;;;5.70;99.90;;;;;;5073829;28;20199;-78
2023/01/18 11:52:16;;;;;;;5.00;4.10;;;5.80;99.90;;;;;;5045259;28;20185;-76
2023/01/18 11:54:52;;;;;;;6.33;4.27;;;5.80;99.90;;;;;;5074516;28;20190;-79
2023/01/18 11:57:18;;;;;;;7.00;3.93;;;5.90;99.90;;;;;;5077234;28;20245;-77
2023/01/18 11:59:45;;;;;;;5.50;3.60;;;5.90;99.90;;;;;;5077141;28;20178;-76
2023/01/18 12:02:29;;;;;;;5.17;4.07;;;6.00;99.90;;;;;;5077148;28;20259;-78
2023/01/18 12:05:24;;;;;;;4.97;3.60;;;6.10;99.90;;;;;;5093754;28;20184;-77
2023/01/18 12:08:12;;;;;;;4.57;3.37;;;6.30;99.90;;;;;;5093983;28;20167;-78
2023/01/18 12:10:47;;;;;;;6.03;4.00;;;6.30;99.90;;;;;;5077090;28;20194;-77
2023/01/18 12:13:35;;;;;;;3.83;3.17;;;6.40;99.90;;;;;;5093948;28;20176;-77
2023/01/18 12:16:21;;;;;;;5.30;3.90;;;6.50;99.90;;;;;;5075679;28;20223;-77
2023/01/18 12:19:11;;;;;;;4.80;3.67;;;6.60;99.90;;;;;;5061911;28;20179;-77
2023/01/18 12:22:21;;;;;;;5.43;3.70;;;6.80;99.90;;;;;;5097822;28;20168;-75
2023/01/18 12:25:11;;;;;;;4.07;3.30;;;7.00;99.90;;;;;;5073509;28;20180;-78
2023/01/18 12:27:56;;;;;;;4.87;3.60;;;7.20;99.90;;;;;;5070101;28;20179;-77
2023/01/18 12:30:30;;;;;;;5.00;3.37;;;7.60;99.90;;;;;;5080794;28;20192;-77
2023/01/18 12:33:05;;;;;;;7.17;3.77;;;7.80;99.90;;;;;;5080698;28;20159;-78
2023/01/18 12:35:40;;;;;;;4.33;3.33;;;8.10;99.90;;;;;;5079840;28;20203;-78
2023/01/18 12:38:27;;;;;;;4.73;2.90;;;8.20;99.90;;;;;;5077779;28;20191;-79
2023/01/18 12:40:59;;;;;;;3.13;2.33;;;8.40;99.90;;;;;;5097411;28;20182;-79
2023/01/18 12:43:50;;;;;;;3.67;2.20;;;8.40;99.90;;;;;;5097270;28;20244;-76
2023/01/18 12:46:42;;;;;;;3.00;2.13;;;8.50;99.90;;;;;;5080235;28;20180;-76
2023/01/18 12:49:17;;;;;;;1.93;1.57;;;8.40;99.90;;;;;;5066744;28;20187;-77
2023/01/18 12:51:45;;;;;;;2.40;1.80;;;8.20;99.90;;;;;;5090816;28;20186;-77
2023/01/18 12:54:31;;;;;;;2.43;1.80;;;8.20;99.90;;;;;;5060206;28;20204;-75
2023/01/18 12:57:04;;;;;;;5.90;1.87;;;8.10;99.90;;;;;;5078706;28;20216;-78
2023/01/18 12:59:45;;;;;;;4.07;1.70;;;8.00;99.90;;;;;;5080081;28;20191;-77
2023/01/18 13:02:32;;;;;;;2.23;1.70;;;8.00;99.90;;;;;;5080491;28;20217;-77
2023/01/18 13:05:09;;;;;;;3.03;2.00;;;7.90;99.90;;;;;;5079675;28;20221;-79
2023/01/18 13:07:40;;;;;;;2.80;1.90;;;7.80;99.90;;;;;;5079634;28;20221;-77
2023/01/18 13:10:21;;;;;;;3.30;1.87;;;7.80;99.90;;;;;;5084072;28;20214;-78
2023/01/18 13:12:49;;;;;;;2.77;1.90;;;7.70;99.90;;;;;;5079917;28;20206;-76
2023/01/18 13:15:29;;;;;;;3.10;1.90;;;7.70;99.90;;;;;;5079784;28;20206;-77
2023/01/18 13:17:58;;;;;;;3.73;2.20;;;7.80;99.90;;;;;;5078986;28;20221;-77
2023/01/18 13:20:50;;;;;;;4.03;2.27;;;8.00;99.90;;;;;;5079948;28;20176;-77
2023/01/18 13:23:37;;;;;;;4.97;2.50;;;8.10;99.90;;;;;;5079656;28;20272;-79
2023/01/18 13:26:26;;;;;;;3.90;2.53;;;8.20;99.90;;;;;;5096572;28;20196;-78
2023/01/18 13:29:28;;;;;;;3.40;2.07;;;8.10;99.90;;;;;;5079242;28;20196;-77
2023/01/18 13:31:55;;;;;;;3.00;2.20;;;8.00;99.90;;;;;;5080112;28;20168;-80
2023/01/18 13:34:27;;;;;;;5.23;2.10;;;7.90;99.90;;;;;;5078820;28;20199;-77
2023/01/18 13:36:58;;;;;;;3.13;2.23;;;7.80;99.90;;;;;;5079422;28;20196;-79
2023/01/18 13:39:26;;;;;;;4.83;2.70;;;7.80;99.90;;;;;;5076039;28;20228;-77
2023/01/18 13:42:07;;;;;;;4.60;2.50;;;7.70;99.90;;;;;;5059368;28;20173;-77
2023/01/18 13:44:46;;;;;;;3.30;2.40;;;7.70;99.90;;;;;;5075546;28;20168;-76
2023/01/18 13:47:44;;;;;;;5.10;2.80;;;7.70;99.90;;;;;;5096558;28;20160;-77
2023/01/18 13:50:33;;;;;;;2.53;2.07;;;7.70;99.90;;;;;;5059203;28;20263;-77